Time;durP1;ratioP1;P1;durP2;ratioP2;P2;SDS_P1;SDS_P2;PMS_P1;PMS_P2;Temp;Humidity;BMP_temperature;BMP_pressure;BME280_temperature;BME280_humidity;BME280_pressure;Samples;Min_cycle;Max_cycle;Signal;HPM_P1;HPM_P2
2022/05/19 00:01:17;;;;;;;42.92;33.78;;;;;;;;;;5032047;28;20045;-73
2022/05/19 00:03:43;;;;;;;39.53;33.53;;;;;;;;;;5034028;28;20038;-72
2022/05/19 00:06:10;;;;;;;40.53;36.10;;;;;;;;;;5033591;28;20048;-71
2022/05/19 00:08:36;;;;;;;41.55;36.05;;;;;;;;;;5030660;28;20045;-72
2022/05/19 00:11:04;;;;;;;38.78;34.05;;;;;;;;;;5032394;28;20510;-71
2022/05/19 00:13:31;;;;;;;41.03;35.35;;;;;;;;;;5030436;28;20044;-73
2022/05/19 00:15:57;;;;;;;42.35;36.03;;;;;;;;;;5011318;28;20112;-72
2022/05/19 00:18:23;;;;;;;41.67;35.90;;;;;;;;;;5016842;28;20042;-72
2022/05/19 00:20:50;;;;;;;39.85;33.65;;;;;;;;;;5030095;28;20088;-72
2022/05/19 00:23:16;;;;;;;43.00;36.00;;;;;;;;;;5033306;28;20415;-72
2022/05/19 00:25:42;;;;;;;41.42;34.90;;;;;;;;;;5033147;28;20053;-72
2022/05/19 00:28:08;;;;;;;44.47;34.72;;;;;;;;;;5030942;28;20037;-73
2022/05/19 00:30:34;;;;;;;41.88;34.53;;;;;;;;;;5031330;28;20094;-73
2022/05/19 00:33:00;;;;;;;43.90;35.03;;;;;;;;;;5028317;28;20045;-72
2022/05/19 00:35:26;;;;;;;42.28;34.50;;;;;;;;;;5022504;28;20457;-72
2022/05/19 00:37:52;;;;;;;42.03;34.63;;;;;;;;;;5015349;28;20041;-72
2022/05/19 00:40:20;;;;;;;39.35;34.95;;;;;;;;;;5031266;28;20083;-72
2022/05/19 00:42:46;;;;;;;40.60;36.30;;;;;;;;;;5031533;28;20049;-73
2022/05/19 00:45:17;;;;;;;39.92;35.50;;;;;;;;;;5030651;28;20049;-72
2022/05/19 00:47:47;;;;;;;42.88;36.80;;;;;;;;;;5015291;28;20037;-72
2022/05/19 00:50:19;;;;;;;42.42;37.53;;;;;;;;;;5032399;28;20045;-72
2022/05/19 00:52:46;;;;;;;45.30;38.60;;;;;;;;;;5028025;28;20078;-71
2022/05/19 00:55:17;;;;;;;44.63;38.78;;;;;;;;;;5033280;28;20048;-71
2022/05/19 00:57:45;;;;;;;44.80;39.15;;;;;;;;;;5030766;28;20051;-73
2022/05/19 01:00:14;;;;;;;46.50;41.50;;;;;;;;;;5027171;28;20049;-72
2022/05/19 01:02:46;;;;;;;45.40;38.75;;;;;;;;;;5034072;28;20068;-72
2022/05/19 01:05:35;;;;;;;49.53;38.83;;;;;;;;;;5029408;28;20042;-72
2022/05/19 01:08:07;;;;;;;47.28;40.35;;;;;;;;;;5002600;28;20054;-72
2022/05/19 01:10:33;;;;;;;43.25;38.42;;;;;;;;;;5031170;28;20056;-72
2022/05/19 01:12:59;;;;;;;44.38;39.63;;;;;;;;;;5028290;28;20527;-72
2022/05/19 01:15:25;;;;;;;45.95;39.85;;;;;;;;;;5017636;28;20048;-72
2022/05/19 01:17:51;;;;;;;50.45;41.20;;;;;;;;;;5028108;28;20191;-71
2022/05/19 01:20:22;;;;;;;45.67;40.78;;;;;;;;;;5031017;28;20053;-71
2022/05/19 01:23:01;;;;;;;47.72;42.33;;;;;;;;;;4982944;28;20046;-72
2022/05/19 01:25:27;;;;;;;46.70;41.20;;;;;;;;;;5015425;28;20049;-72
2022/05/19 01:27:53;;;;;;;50.13;43.45;;;;;;;;;;5031926;28;20496;-72
2022/05/19 01:30:18;;;;;;;48.67;42.40;;;;;;;;;;5032822;28;20042;-73
2022/05/19 01:32:44;;;;;;;51.25;44.08;;;;;;;;;;5032103;28;20067;-71
2022/05/19 01:35:11;;;;;;;47.70;42.55;;;;;;;;;;5013961;28;20127;-72
2022/05/19 01:37:37;;;;;;;50.67;43.88;;;;;;;;;;5011208;28;20044;-72
2022/05/19 01:40:06;;;;;;;49.17;43.83;;;;;;;;;;5031932;28;20577;-72
2022/05/19 01:42:50;;;;;;;55.05;45.65;;;;;;;;;;5030784;28;20037;-72
2022/05/19 01:45:34;;;;;;;52.63;46.45;;;;;;;;;;5029982;28;20361;-72
2022/05/19 01:48:19;;;;;;;54.33;47.00;;;;;;;;;;5027925;28;20037;-72
2022/05/19 01:51:04;;;;;;;56.92;48.00;;;;;;;;;;5032655;28;20499;-72
2022/05/19 01:53:39;;;;;;;57.40;47.88;;;;;;;;;;5031239;28;20499;-72
2022/05/19 01:56:10;;;;;;;51.05;44.92;;;;;;;;;;5012676;28;20505;-72
2022/05/19 01:58:50;;;;;;;52.08;46.63;;;;;;;;;;5025265;28;20124;-72
2022/05/19 02:01:18;;;;;;;53.53;47.72;;;;;;;;;;5031386;28;20072;-73
2022/05/19 02:03:48;;;;;;;51.47;45.80;;;;;;;;;;5032837;28;20037;-73
2022/05/19 02:06:21;;;;;;;54.72;46.13;;;;;;;;;;5028589;28;20096;-72
2022/05/19 02:08:50;;;;;;;54.72;47.38;;;;;;;;;;5027875;28;20526;-73
2022/05/19 02:11:25;;;;;;;52.97;47.25;;;;;;;;;;5029931;28;20049;-71
2022/05/19 02:13:51;;;;;;;57.55;47.72;;;;;;;;;;5029079;28;20523;-73
2022/05/19 02:16:19;;;;;;;52.95;47.20;;;;;;;;;;5030167;28;20041;-72
2022/05/19 02:18:46;;;;;;;55.35;49.33;;;;;;;;;;5031319;28;20049;-72
2022/05/19 02:21:12;;;;;;;56.58;50.05;;;;;;;;;;5010227;28;20041;-72
2022/05/19 02:23:40;;;;;;;56.45;49.20;;;;;;;;;;5026163;28;20041;-72
2022/05/19 02:26:06;;;;;;;57.85;50.58;;;;;;;;;;5030493;28;20046;-72
2022/05/19 02:28:41;;;;;;;58.72;50.10;;;;;;;;;;5032049;28;20045;-73
2022/05/19 02:31:07;;;;;;;58.40;50.22;;;;;;;;;;5030138;28;20488;-72
2022/05/19 02:33:34;;;;;;;56.47;50.25;;;;;;;;;;5031508;28;20042;-73
2022/05/19 02:36:01;;;;;;;57.22;50.40;;;;;;;;;;5012394;28;20042;-72
2022/05/19 02:38:27;;;;;;;57.85;49.75;;;;;;;;;;5031267;28;20227;-72
2022/05/19 02:40:53;;;;;;;57.35;50.13;;;;;;;;;;4998362;28;20048;-73
2022/05/19 02:43:19;;;;;;;58.33;51.65;;;;;;;;;;5030588;28;20489;-72
2022/05/19 02:45:48;;;;;;;58.90;52.30;;;;;;;;;;5031450;28;20403;-72
2022/05/19 02:48:14;;;;;;;58.47;51.38;;;;;;;;;;5030391;28;20407;-72
2022/05/19 02:50:42;;;;;;;58.65;50.72;;;;;;;;;;5024634;28;20583;-73
2022/05/19 02:53:08;;;;;;;58.40;51.38;;;;;;;;;;5029804;28;20522;-72
2022/05/19 02:55:34;;;;;;;56.75;50.70;;;;;;;;;;5032101;28;20041;-72
2022/05/19 02:58:00;;;;;;;62.63;51.70;;;;;;;;;;5030288;28;20045;-72
2022/05/19 03:00:26;;;;;;;60.72;52.67;;;;;;;;;;5014496;28;20038;-72
2022/05/19 03:02:54;;;;;;;58.30;51.67;;;;;;;;;;5031171;28;20048;-72
2022/05/19 03:05:21;;;;;;;59.13;51.72;;;;;;;;;;5006265;28;20088;-73
2022/05/19 03:07:47;;;;;;;60.00;52.22;;;;;;;;;;5026727;28;20154;-73
2022/05/19 03:10:14;;;;;;;60.05;50.58;;;;;;;;;;5036358;28;20133;-71
2022/05/19 03:12:40;;;;;;;62.55;51.50;;;;;;;;;;5014738;28;20100;-72
2022/05/19 03:15:07;;;;;;;65.28;52.15;;;;;;;;;;5027154;28;20116;-71
2022/05/19 03:17:33;;;;;;;60.03;51.58;;;;;;;;;;5024440;28;20045;-73
2022/05/19 03:19:59;;;;;;;58.80;50.65;;;;;;;;;;5009092;28;20042;-72
2022/05/19 03:22:25;;;;;;;60.50;52.22;;;;;;;;;;5031639;28;20041;-71
2022/05/19 03:24:51;;;;;;;63.10;52.28;;;;;;;;;;5033016;28;20476;-73
2022/05/19 03:27:20;;;;;;;61.03;53.20;;;;;;;;;;5033378;28;20439;-73
2022/05/19 03:29:46;;;;;;;62.08;53.13;;;;;;;;;;5017898;28;20062;-72
2022/05/19 03:32:12;;;;;;;61.20;54.20;;;;;;;;;;5012643;28;20045;-73
2022/05/19 03:34:38;;;;;;;59.00;52.63;;;;;;;;;;5032009;28;20045;-72
2022/05/19 03:37:04;;;;;;;60.45;52.17;;;;;;;;;;5034872;28;20484;-72
2022/05/19 03:39:31;;;;;;;64.32;54.00;;;;;;;;;;5032677;28;20042;-72
2022/05/19 03:41:57;;;;;;;64.50;53.97;;;;;;;;;;5031215;28;20565;-72
2022/05/19 03:44:23;;;;;;;61.03;54.40;;;;;;;;;;5034331;28;20499;-72
2022/05/19 03:46:49;;;;;;;62.60;52.97;;;;;;;;;;5033946;28;20057;-73
2022/05/19 03:49:15;;;;;;;60.40;52.17;;;;;;;;;;5034487;28;20462;-72
2022/05/19 03:51:42;;;;;;;59.95;52.10;;;;;;;;;;5033425;28;20041;-72
2022/05/19 03:54:08;;;;;;;61.67;52.22;;;;;;;;;;5032057;28;20041;-73
2022/05/19 03:56:35;;;;;;;60.97;53.70;;;;;;;;;;5031033;28;20046;-72
2022/05/19 03:59:02;;;;;;;63.40;53.38;;;;;;;;;;5034155;28;20403;-72
2022/05/19 04:01:29;;;;;;;59.80;52.72;;;;;;;;;;5033689;28;20045;-73
2022/05/19 04:03:56;;;;;;;60.53;51.30;;;;;;;;;;5033703;28;20051;-72
2022/05/19 04:06:22;;;;;;;61.65;53.20;;;;;;;;;;5033379;28;20057;-71
2022/05/19 04:08:48;;;;;;;61.72;51.95;;;;;;;;;;5029690;28;20124;-73
2022/05/19 04:11:14;;;;;;;61.63;53.97;;;;;;;;;;5033568;28;20045;-75
2022/05/19 04:13:41;;;;;;;60.80;54.03;;;;;;;;;;5017663;28;20038;-71
2022/05/19 04:16:07;;;;;;;60.50;53.40;;;;;;;;;;5030487;28;20099;-72
2022/05/19 04:18:33;;;;;;;60.63;50.97;;;;;;;;;;5033606;28;20136;-72
2022/05/19 04:20:59;;;;;;;61.08;51.88;;;;;;;;;;5032855;28;20098;-72
2022/05/19 04:23:25;;;;;;;58.92;51.92;;;;;;;;;;5016478;28;20037;-72
2022/05/19 04:25:51;;;;;;;58.72;50.75;;;;;;;;;;5014989;28;20041;-71
2022/05/19 04:28:18;;;;;;;58.15;51.22;;;;;;;;;;5034434;28;20077;-71
2022/05/19 04:30:44;;;;;;;58.33;48.85;;;;;;;;;;5030080;28;20539;-72
2022/05/19 04:33:10;;;;;;;58.65;50.10;;;;;;;;;;5011381;28;20081;-71
2022/05/19 04:35:37;;;;;;;62.83;51.63;;;;;;;;;;5015527;28;20042;-72
2022/05/19 04:38:07;;;;;;;56.60;49.50;;;;;;;;;;5014631;28;20041;-72
2022/05/19 04:40:35;;;;;;;56.55;50.40;;;;;;;;;;5015369;28;20052;-72
2022/05/19 04:43:01;;;;;;;56.38;50.22;;;;;;;;;;5033658;28;20049;-72
2022/05/19 04:45:27;;;;;;;56.17;49.47;;;;;;;;;;5034996;28;20056;-72
2022/05/19 04:47:53;;;;;;;55.85;49.88;;;;;;;;;;5031551;28;20042;-72
2022/05/19 04:50:20;;;;;;;53.95;48.10;;;;;;;;;;5034822;28;20041;-72
2022/05/19 04:52:46;;;;;;;56.97;48.65;;;;;;;;;;5033942;28;20064;-73
2022/05/19 04:55:12;;;;;;;52.10;46.60;;;;;;;;;;5015413;28;20050;-73
2022/05/19 04:57:38;;;;;;;50.83;45.53;;;;;;;;;;5016609;28;20072;-72
2022/05/19 05:00:06;;;;;;;50.53;45.17;;;;;;;;;;5032970;28;20052;-73
2022/05/19 05:02:32;;;;;;;49.63;43.75;;;;;;;;;;5033926;28;20052;-73
2022/05/19 05:05:01;;;;;;;50.13;42.72;;;;;;;;;;5031840;28;20033;-73
2022/05/19 05:07:27;;;;;;;46.40;41.53;;;;;;;;;;5031276;28;20072;-73
2022/05/19 05:09:53;;;;;;;47.47;42.22;;;;;;;;;;5018905;28;20093;-73
2022/05/19 05:12:19;;;;;;;48.47;43.35;;;;;;;;;;5025377;28;20045;-73
2022/05/19 05:14:45;;;;;;;46.47;41.47;;;;;;;;;;5032213;28;20041;-73
2022/05/19 05:17:11;;;;;;;47.40;42.38;;;;;;;;;;5034607;28;20041;-73
2022/05/19 05:19:37;;;;;;;48.70;42.13;;;;;;;;;;5033617;28;20049;-73
2022/05/19 05:22:04;;;;;;;45.55;40.65;;;;;;;;;;5034708;28;20476;-73
2022/05/19 05:24:30;;;;;;;46.45;41.45;;;;;;;;;;5014438;28;20045;-72
2022/05/19 05:26:56;;;;;;;44.55;39.83;;;;;;;;;;5031488;28;20041;-72
2022/05/19 05:29:22;;;;;;;42.78;38.15;;;;;;;;;;5025695;28;20087;-72
2022/05/19 05:31:48;;;;;;;40.95;36.60;;;;;;;;;;5022633;28;20049;-72
2022/05/19 05:34:14;;;;;;;39.30;35.08;;;;;;;;;;5022906;28;20384;-72
2022/05/19 05:36:40;;;;;;;38.85;34.75;;;;;;;;;;5014262;28;20094;-72
2022/05/19 05:39:06;;;;;;;39.50;35.20;;;;;;;;;;5024900;28;20041;-72
2022/05/19 05:41:32;;;;;;;39.47;35.10;;;;;;;;;;5033759;28;20099;-73
2022/05/19 05:43:58;;;;;;;34.47;31.02;;;;;;;;;;5032126;28;20506;-73
2022/05/19 05:46:24;;;;;;;35.95;30.75;;;;;;;;;;5033858;28;20049;-73
2022/05/19 05:48:51;;;;;;;31.83;28.15;;;;;;;;;;5032193;28;20064;-71
2022/05/19 05:51:17;;;;;;;31.45;28.25;;;;;;;;;;5031300;28;20064;-72
2022/05/19 05:53:44;;;;;;;29.85;25.77;;;;;;;;;;5033442;28;20450;-73
2022/05/19 05:56:11;;;;;;;28.23;25.20;;;;;;;;;;5024088;28;20552;-72
2022/05/19 05:58:37;;;;;;;28.17;25.38;;;;;;;;;;5033304;28;20469;-73
2022/05/19 06:01:04;;;;;;;27.00;24.08;;;;;;;;;;5032031;28;20056;-72
2022/05/19 06:03:31;;;;;;;26.85;23.95;;;;;;;;;;5028766;28;20049;-72
2022/05/19 06:05:57;;;;;;;24.10;21.63;;;;;;;;;;5031603;28;20041;-73
2022/05/19 06:08:23;;;;;;;23.20;20.80;;;;;;;;;;5027751;28;20114;-72
2022/05/19 06:10:49;;;;;;;25.58;21.13;;;;;;;;;;5014093;28;20517;-73
2022/05/19 06:13:16;;;;;;;22.77;19.45;;;;;;;;;;5014935;28;20053;-73
2022/05/19 06:15:42;;;;;;;20.75;18.55;;;;;;;;;;5033175;28;20140;-74
2022/05/19 06:18:08;;;;;;;20.08;17.70;;;;;;;;;;5030751;28;20045;-72
2022/05/19 06:20:35;;;;;;;19.67;17.60;;;;;;;;;;5030449;28;20049;-72
2022/05/19 06:23:01;;;;;;;20.83;18.73;;;;;;;;;;5032354;28;20495;-72
2022/05/19 06:25:27;;;;;;;20.23;17.65;;;;;;;;;;5027811;28;20053;-72
2022/05/19 06:27:53;;;;;;;21.55;17.35;;;;;;;;;;5029966;28;20047;-72
2022/05/19 06:30:20;;;;;;;21.58;17.88;;;;;;;;;;5023432;28;20060;-73
2022/05/19 06:32:50;;;;;;;20.55;16.25;;;;;;;;;;5042445;28;20600;-74
2022/05/19 06:35:19;;;;;;;20.52;16.80;;;;;;;;;;5028033;28;20034;-72
2022/05/19 06:37:45;;;;;;;17.98;15.00;;;;;;;;;;5031113;28;20048;-73
2022/05/19 06:40:13;;;;;;;17.98;15.43;;;;;;;;;;5022419;28;20592;-74
2022/05/19 06:42:39;;;;;;;18.05;15.35;;;;;;;;;;5026855;28;20049;-73
2022/05/19 06:45:06;;;;;;;17.70;14.60;;;;;;;;;;5036250;28;20057;-74
2022/05/19 06:47:32;;;;;;;16.75;14.57;;;;;;;;;;5035874;28;20072;-73
2022/05/19 06:49:58;;;;;;;17.77;14.77;;;;;;;;;;5035771;28;20103;-73
2022/05/19 06:52:33;;;;;;;18.20;14.90;;;;;;;;;;5036421;28;20050;-73
2022/05/19 06:55:01;;;;;;;14.57;13.07;;;;;;;;;;5035230;28;20045;-74
2022/05/19 06:57:28;;;;;;;14.43;11.57;;;;;;;;;;5026233;28;20045;-73
2022/05/19 06:59:54;;;;;;;14.18;11.05;;;;;;;;;;5018064;28;20075;-74
2022/05/19 07:02:21;;;;;;;12.82;9.98;;;;;;;;;;5036599;28;20072;-73
2022/05/19 07:04:47;;;;;;;12.85;9.55;;;;;;;;;;5034010;28;20103;-73
2022/05/19 07:07:13;;;;;;;14.57;10.20;;;;;;;;;;5036107;28;20107;-74
2022/05/19 07:09:40;;;;;;;11.27;9.40;;;;;;;;;;5017183;28;20052;-74
2022/05/19 07:12:06;;;;;;;12.00;9.70;;;;;;;;;;5036132;28;20058;-74
2022/05/19 07:14:33;;;;;;;12.65;10.50;;;;;;;;;;5035165;28;20128;-74
2022/05/19 07:16:59;;;;;;;18.88;11.48;;;;;;;;;;5034426;28;20491;-73
2022/05/19 07:22:14;;;;;;;13.60;10.65;;;;;;;;;;5023921;28;20037;-73
2022/05/19 07:24:40;;;;;;;13.00;11.05;;;;;;;;;;5036404;28;20048;-74
2022/05/19 07:27:06;;;;;;;14.77;12.27;;;;;;;;;;5015527;28;20054;-73
2022/05/19 07:29:32;;;;;;;14.65;11.60;;;;;;;;;;5031376;28;20034;-72
2022/05/19 07:32:01;;;;;;;17.15;11.85;;;;;;;;;;5028990;28;20045;-73
2022/05/19 07:34:28;;;;;;;15.90;12.45;;;;;;;;;;5035428;28;20056;-73
2022/05/19 07:36:54;;;;;;;14.68;11.63;;;;;;;;;;5033386;28;20053;-73
2022/05/19 07:39:21;;;;;;;15.80;13.07;;;;;;;;;;5016020;28;20049;-74
2022/05/19 07:41:47;;;;;;;17.80;13.18;;;;;;;;;;5036083;28;20064;-72
2022/05/19 07:44:13;;;;;;;14.52;12.80;;;;;;;;;;5035723;28;20431;-74
2022/05/19 07:46:40;;;;;;;14.20;12.32;;;;;;;;;;5035960;28;20095;-73
2022/05/19 07:49:07;;;;;;;14.75;12.55;;;;;;;;;;5030958;28;20037;-72
2022/05/19 07:51:37;;;;;;;15.50;12.10;;;;;;;;;;5034360;28;20045;-71
2022/05/19 07:54:07;;;;;;;17.58;12.95;;;;;;;;;;5030215;28;20037;-71
2022/05/19 07:56:34;;;;;;;14.48;12.70;;;;;;;;;;5034640;28;20045;-73
2022/05/19 07:59:01;;;;;;;15.15;11.90;;;;;;;;;;5035483;28;20057;-71
2022/05/19 08:01:27;;;;;;;17.27;14.35;;;;;;;;;;5035123;28;20095;-73
2022/05/19 08:03:53;;;;;;;17.05;13.73;;;;;;;;;;5034891;28;20080;-73
2022/05/19 08:06:19;;;;;;;17.75;14.93;;;;;;;;;;5033497;28;20052;-73
2022/05/19 08:08:45;;;;;;;18.17;15.13;;;;;;;;;;5032859;28;20045;-73
2022/05/19 08:11:11;;;;;;;16.75;14.57;;;;;;;;;;5035406;28;20129;-72
2022/05/19 08:16:22;;;;;;;18.27;16.23;;;;;;;;;;5036561;28;20184;-71
2022/05/19 08:18:49;;;;;;;21.08;17.60;;;;;;;;;;5034833;28;20103;-72
2022/05/19 08:21:15;;;;;;;22.88;17.42;;;;;;;;;;5034883;28;20041;-71
2022/05/19 08:23:43;;;;;;;19.58;17.23;;;;;;;;;;5034448;28;20419;-71
2022/05/19 08:26:10;;;;;;;21.60;17.27;;;;;;;;;;5033752;28;20048;-71
2022/05/19 08:28:37;;;;;;;19.98;17.85;;;;;;;;;;5034505;28;20038;-72
2022/05/19 08:31:02;;;;;;;20.17;17.85;;;;;;;;;;5035388;28;20091;-72
2022/05/19 08:33:29;;;;;;;20.70;17.30;;;;;;;;;;5033170;28;20041;-70
2022/05/19 08:35:56;;;;;;;20.70;17.15;;;;;;;;;;5029643;28;20056;-72
2022/05/19 08:38:22;;;;;;;19.13;16.92;;;;;;;;;;5034016;28;20128;-70
2022/05/19 08:40:53;;;;;;;22.50;17.70;;;;;;;;;;5034392;28;20045;-71
2022/05/19 08:43:22;;;;;;;19.83;16.67;;;;;;;;;;5021137;28;20511;-71
2022/05/19 08:45:50;;;;;;;19.27;16.88;;;;;;;;;;5034254;28;20053;-71
2022/05/19 08:48:21;;;;;;;18.15;16.25;;;;;;;;;;5036419;28;20048;-72
2022/05/19 08:50:48;;;;;;;;;;;;;;;;;;5036222;28;20046;-71
2022/05/19 08:53:14;;;;;;;20.23;17.65;;;;;;;;;;5030385;28;20287;-71
2022/05/19 08:55:41;;;;;;;20.10;17.67;;;;;;;;;;5031596;28;20056;-72
2022/05/19 08:58:34;;;;;;;20.90;17.20;;;;;;;;;;5033967;28;20091;-71
2022/05/19 09:01:14;;;;;;;19.02;16.05;;;;;;;;;;5015856;28;20049;-73
2022/05/19 09:03:46;;;;;;;18.40;16.40;;;;;;;;;;5032847;28;20041;-71
2022/05/19 09:06:12;;;;;;;18.45;16.40;;;;;;;;;;5022327;28;20052;-72
2022/05/19 09:08:50;;;;;;;20.48;17.95;;;;;;;;;;5042662;28;20045;-71
2022/05/19 09:11:21;;;;;;;20.77;18.25;;;;;;;;;;5011807;28;20517;-71
2022/05/19 09:14:03;;;;;;;21.33;17.83;;;;;;;;;;5031640;28;20100;-72
2022/05/19 09:16:34;;;;;;;21.02;18.00;;;;;;;;;;5027902;28;20379;-73
2022/05/19 09:19:11;;;;;;;19.60;17.55;;;;;;;;;;5023290;28;20601;-72
2022/05/19 09:21:38;;;;;;;21.92;18.20;;;;;;;;;;5028402;28;20075;-72
2022/05/19 09:24:05;;;;;;;19.98;17.88;;;;;;;;;;5031451;28;20049;-72
2022/05/19 09:26:46;;;;;;;19.70;17.42;;;;;;;;;;5034109;28;20053;-73
2022/05/19 09:29:14;;;;;;;18.30;16.27;;;;;;;;;;5034835;28;20037;-73
2022/05/19 09:31:42;;;;;;;18.63;16.35;;;;;;;;;;5034094;28;20048;-72
2022/05/19 09:34:09;;;;;;;19.27;17.05;;;;;;;;;;5033163;28;20049;-73
2022/05/19 09:36:41;;;;;;;19.77;17.23;;;;;;;;;;5039595;28;20045;-73
2022/05/19 09:39:09;;;;;;;19.10;17.10;;;;;;;;;;5044312;28;20048;-73
2022/05/19 09:41:39;;;;;;;19.70;17.58;;;;;;;;;;5036811;28;20063;-72
2022/05/19 09:44:05;;;;;;;18.50;16.60;;;;;;;;;;5027722;28;20085;-71
2022/05/19 09:46:37;;;;;;;20.13;17.88;;;;;;;;;;5008626;28;20053;-73
2022/05/19 09:49:04;;;;;;;23.83;17.85;;;;;;;;;;5034169;28;20103;-75
2022/05/19 09:51:32;;;;;;;20.17;17.85;;;;;;;;;;5035069;28;20045;-73
2022/05/19 09:53:59;;;;;;;21.60;18.08;;;;;;;;;;5054075;28;20045;-74
2022/05/19 09:56:34;;;;;;;21.92;18.60;;;;;;;;;;5043274;28;20048;-73
2022/05/19 09:59:07;;;;;;;19.25;17.35;;;;;;;;;;5033618;28;20038;-73
2022/05/19 10:01:39;;;;;;;20.10;17.55;;;;;;;;;;5035191;28;20067;-73
2022/05/19 10:04:09;;;;;;;23.85;18.13;;;;;;;;;;5012757;28;20395;-73
2022/05/19 10:06:36;;;;;;;20.65;18.25;;;;;;;;;;5033084;28;20056;-73
2022/05/19 10:09:08;;;;;;;20.90;18.90;;;;;;;;;;5029719;28;20107;-72
2022/05/19 10:11:34;;;;;;;20.83;18.73;;;;;;;;;;5031701;28;20466;-73
2022/05/19 10:14:03;;;;;;;22.85;20.45;;;;;;;;;;5032811;28;20064;-73
2022/05/19 10:16:32;;;;;;;22.83;20.52;;;;;;;;;;5030647;28;20130;-72
2022/05/19 10:19:17;;;;;;;22.00;19.63;;;;;;;;;;5032686;28;20072;-74
2022/05/19 10:21:52;;;;;;;18.90;16.90;;;;;;;;;;5030451;28;20081;-73
2022/05/19 10:24:18;;;;;;;16.60;14.90;;;;;;;;;;5041091;28;20044;-73
2022/05/19 10:33:02;;;;;;;16.10;14.32;;;;;;;;;;5040109;28;20124;-73
2022/05/19 10:35:29;;;;;;;17.02;14.13;;;;;;;;;;5021196;28;20053;-74
2022/05/19 10:38:14;;;;;;;15.70;13.65;;;;;;;;;;5032084;28;20072;-74
2022/05/19 10:40:49;;;;;;;17.77;13.98;;;;;;;;;;5032592;28;20107;-73
2022/05/19 10:43:31;;;;;;;15.02;13.23;;;;;;;;;;5012414;28;20049;-72
2022/05/19 10:45:59;;;;;;;17.92;14.30;;;;;;;;;;5038092;28;20057;-73
2022/05/19 10:48:37;;;;;;;16.00;13.98;;;;;;;;;;5033249;28;20450;-73
2022/05/19 10:51:30;;;;;;;15.43;13.80;;;;;;;;;;5024647;28;20041;-74
2022/05/19 10:54:08;;;;;;;16.63;13.60;;;;;;;;;;5012166;28;20054;-74
2022/05/19 10:56:53;;;;;;;16.85;14.75;;;;;;;;;;5029727;28;20053;-72
2022/05/19 10:59:32;;;;;;;17.33;14.00;;;;;;;;;;5015266;28;20385;-73
2022/05/19 11:02:17;;;;;;;16.33;14.60;;;;;;;;;;5033444;28;20077;-75
2022/05/19 11:04:52;;;;;;;15.57;13.85;;;;;;;;;;5030941;28;20451;-75
2022/05/19 11:07:24;;;;;;;17.17;14.23;;;;;;;;;;5013847;28;20042;-73
2022/05/19 11:10:07;;;;;;;15.73;14.05;;;;;;;;;;5005116;28;20060;-74
2022/05/19 11:12:52;;;;;;;16.98;15.18;;;;;;;;;;5031819;28;20395;-74
2022/05/19 11:15:34;;;;;;;14.98;12.98;;;;;;;;;;5033879;28;20042;-73
2022/05/19 11:18:12;;;;;;;15.32;13.15;;;;;;;;;;5015225;28;20049;-73
2022/05/19 11:20:38;;;;;;;15.90;12.75;;;;;;;;;;5013880;28;20042;-74
2022/05/19 11:23:13;;;;;;;13.98;12.07;;;;;;;;;;5035512;28;20037;-73
2022/05/19 11:28:49;;;;;;;13.95;11.52;;;;;;;;;;5031248;28;20081;-74
2022/05/19 11:31:19;;;;;;;11.05;8.70;;;;;;;;;;5037048;28;20496;-73
2022/05/19 11:33:47;;;;;;;10.18;7.95;;;;;;;;;;5035684;28;20041;-75
2022/05/19 11:36:18;;;;;;;10.98;8.10;;;;;;;;;;5034576;28;20041;-73
2022/05/19 11:38:55;;;;;;;10.75;7.50;;;;;;;;;;5045449;28;20129;-74
2022/05/19 11:41:24;;;;;;;9.95;6.25;;;;;;;;;;5035314;28;20045;-73
2022/05/19 11:44:10;;;;;;;8.25;5.90;;;;;;;;;;5011593;28;20046;-75
2022/05/19 11:46:59;;;;;;;8.88;6.30;;;;;;;;;;5022044;28;20077;-73
2022/05/19 11:55:36;;;;;;;7.63;4.35;;;;;;;;;;5016058;28;20488;-75
2022/05/19 11:58:09;;;;;;;7.50;3.13;;;;;;;;;;5031825;28;20057;-73
2022/05/19 12:01:01;;;;;;;5.18;2.95;;;;;;;;;;5036733;28;20300;-74
2022/05/19 12:03:44;;;;;;;5.57;2.90;;;;;;;;;;5033373;28;20068;-74
2022/05/19 12:06:12;;;;;;;5.20;2.63;;;;;;;;;;5028263;28;20054;-75
2022/05/19 12:08:41;;;;;;;4.80;2.40;;;;;;;;;;5030771;28;20136;-76
2022/05/19 12:11:26;;;;;;;5.72;2.95;;;;;;;;;;5033981;28;20080;-75
2022/05/19 12:14:08;;;;;;;8.25;3.20;;;;;;;;;;5051976;28;20068;-74
2022/05/19 12:16:55;;;;;;;6.95;3.30;;;;;;;;;;5017049;28;20081;-76
2022/05/19 12:19:33;;;;;;;5.57;2.35;;;;;;;;;;5017182;28;20060;-75
2022/05/19 12:22:00;;;;;;;5.57;2.80;;;;;;;;;;5030680;28;20045;-74
2022/05/19 12:24:36;;;;;;;5.78;2.70;;;;;;;;;;5036389;28;20451;-75
2022/05/19 12:27:23;;;;;;;6.05;3.17;;;;;;;;;;5030843;28;20041;-74
2022/05/19 12:33:14;;;;;;;5.43;3.05;;;;;;;;;;5041036;28;20052;-75
2022/05/19 12:35:41;;;;;;;7.65;4.00;;;;;;;;;;5036465;28;20049;-75
2022/05/19 12:38:27;;;;;;;7.20;3.60;;;;;;;;;;5034945;28;20053;-74
2022/05/19 12:40:54;;;;;;;6.55;3.97;;;;;;;;;;5022967;28;20050;-75
2022/05/19 12:43:21;;;;;;;7.65;4.20;;;;;;;;;;5028080;28;20065;-75
2022/05/19 12:45:49;;;;;;;6.43;3.35;;;;;;;;;;5035313;28;20123;-75
2022/05/19 12:48:15;;;;;;;7.53;3.38;;;;;;;;;;5036209;28;20041;-74
2022/05/19 12:50:41;;;;;;;7.55;2.90;;;;;;;;;;5036139;28;20565;-74
2022/05/19 12:53:13;;;;;;;6.72;2.75;;;;;;;;;;5044761;28;20042;-75
2022/05/19 12:55:39;;;;;;;7.40;3.05;;;;;;;;;;5024889;28;20081;-75
2022/05/19 12:58:24;;;;;;;5.75;3.00;;;;;;;;;;5038732;28;20057;-75
2022/05/19 13:00:52;;;;;;;7.05;2.90;;;;;;;;;;5030695;28;20053;-74
2022/05/19 13:03:20;;;;;;;7.85;3.30;;;;;;;;;;5001026;28;20393;-75
2022/05/19 13:05:56;;;;;;;7.30;2.97;;;;;;;;;;5024564;28;20060;-75
2022/05/19 13:08:22;;;;;;;5.63;2.60;;;;;;;;;;5045169;28;20061;-75
2022/05/19 13:10:50;;;;;;;5.80;2.88;;;;;;;;;;5027745;28;20104;-74
2022/05/19 13:13:19;;;;;;;6.10;2.80;;;;;;;;;;5033174;28;20053;-74
2022/05/19 13:15:56;;;;;;;5.53;2.83;;;;;;;;;;5016337;28;20048;-76
2022/05/19 13:18:24;;;;;;;5.43;2.78;;;;;;;;;;5035049;28;20045;-74
2022/05/19 13:20:50;;;;;;;7.90;3.50;;;;;;;;;;5031991;28;20033;-74
2022/05/19 13:23:30;;;;;;;13.30;4.43;;;;;;;;;;5021614;28;20038;-73
2022/05/19 13:26:00;;;;;;;8.48;4.40;;;;;;;;;;5020994;28;20034;-73
2022/05/19 13:31:21;;;;;;;16.33;5.72;;;;;;;;;;5035990;28;20087;-75
2022/05/19 13:33:49;;;;;;;13.25;6.20;;;;;;;;;;5035227;28;20053;-74
2022/05/19 13:36:15;;;;;;;11.60;5.75;;;;;;;;;;5035678;28;20049;-75
2022/05/19 13:38:42;;;;;;;11.75;6.57;;;;;;;;;;5024046;28;20044;-75
2022/05/19 13:41:11;;;;;;;10.13;5.97;;;;;;;;;;5026687;28;20080;-74
2022/05/19 13:43:40;;;;;;;11.30;7.22;;;;;;;;;;5027312;28;20053;-74
2022/05/19 13:46:10;;;;;;;11.45;7.03;;;;;;;;;;5033338;28;20438;-74
2022/05/19 13:48:39;;;;;;;12.63;6.40;;;;;;;;;;5032379;28;20088;-74
2022/05/19 13:51:29;;;;;;;13.07;6.45;;;;;;;;;;5034193;28;20059;-74
2022/05/19 13:54:02;;;;;;;11.25;7.00;;;;;;;;;;5015516;28;20045;-75
2022/05/19 13:56:36;;;;;;;10.63;5.68;;;;;;;;;;5031089;28;20041;-74
2022/05/19 13:59:03;;;;;;;9.40;5.15;;;;;;;;;;5038097;28;20047;-74
2022/05/19 14:01:41;;;;;;;8.18;4.78;;;;;;;;;;5025928;28;20092;-72
2022/05/19 14:04:08;;;;;;;13.70;4.90;;;;;;;;;;5027606;28;20047;-74
2022/05/19 14:06:35;;;;;;;10.52;4.50;;;;;;;;;;5010209;28;20049;-74
2022/05/19 14:09:02;;;;;;;9.75;4.47;;;;;;;;;;5030311;28;20053;-73
2022/05/19 14:11:28;;;;;;;10.00;4.28;;;;;;;;;;5032334;28;20041;-74
2022/05/19 14:13:56;;;;;;;9.75;4.25;;;;;;;;;;5031173;28;20037;-75
2022/05/19 14:16:22;;;;;;;12.23;3.90;;;;;;;;;;5028866;28;20054;-74
2022/05/19 14:18:53;;;;;;;8.48;4.00;;;;;;;;;;5013388;28;20045;-74
2022/05/19 14:21:19;;;;;;;;;;;;;;;;;;5029146;28;20104;-74
2022/05/19 14:23:57;;;;;;;6.75;3.53;;;;;;;;;;5033303;28;19925;-75
2022/05/19 14:26:26;;;;;;;6.82;3.00;;;;;;;;;;5029202;28;20091;-73
2022/05/19 14:28:54;;;;;;;8.10;3.20;;;;;;;;;;5028131;28;20049;-74
2022/05/19 14:31:32;;;;;;;6.68;3.00;;;;;;;;;;5015635;28;20399;-74
2022/05/19 14:33:58;;;;;;;6.43;3.22;;;;;;;;;;5033756;28;20462;-73
2022/05/19 14:36:27;;;;;;;7.68;3.20;;;;;;;;;;5032776;28;20085;-72
2022/05/19 14:38:54;;;;;;;6.85;3.45;;;;;;;;;;5014737;28;20045;-74
2022/05/19 14:44:12;;;;;;;8.13;3.20;;;;;;;;;;5029814;28;20045;-73
2022/05/19 14:46:43;;;;;;;9.30;3.42;;;;;;;;;;5032438;28;20057;-72
2022/05/19 14:49:11;;;;;;;6.55;3.60;;;;;;;;;;5030703;28;20041;-74
2022/05/19 14:51:38;;;;;;;8.23;3.30;;;;;;;;;;5033584;28;20044;-73
2022/05/19 14:54:06;;;;;;;6.65;3.35;;;;;;;;;;5030219;28;20408;-72
2022/05/19 14:56:36;;;;;;;6.85;2.92;;;;;;;;;;5033848;28;20052;-74
2022/05/19 14:59:04;;;;;;;6.30;3.00;;;;;;;;;;5031607;28;20495;-73
2022/05/19 15:01:30;;;;;;;6.18;2.92;;;;;;;;;;5034084;28;20045;-73
2022/05/19 15:03:56;;;;;;;7.45;3.05;;;;;;;;;;5036399;28;20124;-73
2022/05/19 15:06:22;;;;;;;9.75;3.97;;;;;;;;;;5038142;28;20073;-73